sensor_id;sensor_type;location;lat;lon;timestamp;pressure;altitude;pressure_sealevel;temperature;humidity
44144;BME280;43510;51.920;4.492;2023-01-29T00:01:49;66665.03;;;7.29;86.08
44144;BME280;43510;51.920;4.492;2023-01-29T00:04:14;66662.47;;;7.22;85.67
44144;BME280;43510;51.920;4.492;2023-01-29T00:06:40;66664.31;;;7.26;85.66
44144;BME280;43510;51.920;4.492;2023-01-29T00:09:06;66662.09;;;7.24;86.20
44144;BME280;43510;51.920;4.492;2023-01-29T00:11:33;66660.25;;;7.20;85.71
44144;BME280;43510;51.920;4.492;2023-01-29T00:16:34;66660.25;;;7.20;86.39
44144;BME280;43510;51.920;4.492;2023-01-29T00:26:46;66655.78;;;7.16;85.90
44144;BME280;43510;51.920;4.492;2023-01-29T00:34:25;66650.97;;;7.14;86.12
44144;BME280;43510;51.920;4.492;2023-01-29T00:49:46;66653.19;;;7.16;85.48
44144;BME280;43510;51.920;4.492;2023-01-29T00:59:57;66662.09;;;7.24;85.21
44144;BME280;43510;51.920;4.492;2023-01-29T01:02:23;66669.31;;;7.30;84.78
44144;BME280;43510;51.920;4.492;2023-01-29T01:12:59;66664.69;;;7.24;84.54
44144;BME280;43510;51.920;4.492;2023-01-29T01:15:29;66673.75;;;7.34;84.22
44144;BME280;43510;51.920;4.492;2023-01-29T01:23:05;66677.84;;;7.33;83.98
44144;BME280;43510;51.920;4.492;2023-01-29T01:25:31;66658.94;;;7.16;84.91
44144;BME280;43510;51.920;4.492;2023-01-29T01:27:58;66658.56;;;7.18;84.61
44144;BME280;43510;51.920;4.492;2023-01-29T01:38:10;66649.84;;;7.13;84.75
44144;BME280;43510;51.920;4.492;2023-01-29T01:40:36;66662.47;;;7.22;84.65
44144;BME280;43510;51.920;4.492;2023-01-29T01:43:08;66669.69;;;7.28;84.49
44144;BME280;43510;51.920;4.492;2023-01-29T01:45:35;66676.75;;;7.32;84.37
44144;BME280;43510;51.920;4.492;2023-01-29T01:53:10;66649.28;;;7.12;84.85
44144;BME280;43510;51.920;4.492;2023-01-29T01:55:42;66657.09;;;7.19;84.93
44144;BME280;43510;51.920;4.492;2023-01-29T01:58:12;66669.53;;;7.26;84.79
44144;BME280;43510;51.920;4.492;2023-01-29T02:16:08;66660.63;;;7.18;85.84
44144;BME280;43510;51.920;4.492;2023-01-29T02:18:33;66656.53;;;7.19;86.12
44144;BME280;43510;51.920;4.492;2023-01-29T04:13:38;66613.16;;;6.79;89.47
44144;BME280;43510;51.920;4.492;2023-01-29T04:16:06;66630.59;;;6.90;89.55
44144;BME280;43510;51.920;4.492;2023-01-29T04:18:35;66629.28;;;6.94;89.29
44144;BME280;43510;51.920;4.492;2023-01-29T04:23:35;66639.13;;;7.01;88.67
44144;BME280;43510;51.920;4.492;2023-01-29T04:26:06;66657.28;;;7.15;88.24
44144;BME280;43510;51.920;4.492;2023-01-29T04:28:58;66655.22;;;7.15;87.66
44144;BME280;43510;51.920;4.492;2023-01-29T04:31:33;66654.28;;;7.17;87.30
44144;BME280;43510;51.920;4.492;2023-01-29T04:34:22;66657.84;;;7.15;86.88
44144;BME280;43510;51.920;4.492;2023-01-29T05:02:43;66623.16;;;6.88;87.18
44144;BME280;43510;51.920;4.492;2023-01-29T05:05:09;66619.81;;;6.85;87.27
44144;BME280;43510;51.920;4.492;2023-01-29T05:07:38;66622.41;;;6.85;86.88
44144;BME280;43510;51.920;4.492;2023-01-29T05:10:06;66632.44;;;6.94;86.69
44144;BME280;43510;51.920;4.492;2023-01-29T05:12:33;66633.56;;;6.95;86.38
44144;BME280;43510;51.920;4.492;2023-01-29T05:15:02;66640.59;;;7.00;86.58
44144;BME280;43510;51.920;4.492;2023-01-29T05:17:29;66636.50;;;7.01;86.63
44144;BME280;43510;51.920;4.492;2023-01-29T05:19:55;66632.63;;;6.97;86.70
44144;BME280;43510;51.920;4.492;2023-01-29T05:22:21;66633.56;;;6.95;86.53
44144;BME280;43510;51.920;4.492;2023-01-29T05:24:48;66612.06;;;6.78;87.04
44144;BME280;43510;51.920;4.492;2023-01-29T05:27:18;66620.56;;;6.88;86.64
44144;BME280;43510;51.920;4.492;2023-01-29T05:30:04;66631.31;;;6.93;86.96
44144;BME280;43510;51.920;4.492;2023-01-29T05:32:30;66625.00;;;6.92;86.84
44144;BME280;43510;51.920;4.492;2023-01-29T05:34:56;66634.69;;;6.96;86.57
44144;BME280;43510;51.920;4.492;2023-01-29T05:37:22;66623.53;;;6.86;86.94
44144;BME280;43510;51.920;4.492;2023-01-29T05:39:48;66630.03;;;6.90;86.97
44144;BME280;43510;51.920;4.492;2023-01-29T05:42:13;66609.63;;;6.74;86.79
44144;BME280;43510;51.920;4.492;2023-01-29T05:44:39;66624.28;;;6.89;86.48
44144;BME280;43510;51.920;4.492;2023-01-29T05:47:04;66613.53;;;6.77;87.01
44144;BME280;43510;51.920;4.492;2023-01-29T05:49:30;66628.00;;;6.90;87.31
44144;BME280;43510;51.920;4.492;2023-01-29T05:52:02;66615.75;;;6.79;87.52
44144;BME280;43510;51.920;4.492;2023-01-29T05:54:28;66620.94;;;6.86;87.74
44144;BME280;43510;51.920;4.492;2023-01-29T05:56:53;66620.94;;;6.86;87.57
44144;BME280;43510;51.920;4.492;2023-01-29T05:59:18;66612.25;;;6.74;87.99
44144;BME280;43510;51.920;4.492;2023-01-29T06:01:46;66615.03;;;6.76;88.10
44144;BME280;43510;51.920;4.492;2023-01-29T06:04:11;66627.22;;;6.94;88.23
44144;BME280;43510;51.920;4.492;2023-01-29T06:06:37;66631.50;;;6.96;87.98
44144;BME280;43510;51.920;4.492;2023-01-29T06:09:02;66619.47;;;6.80;87.29
44144;BME280;43510;51.920;4.492;2023-01-29T06:11:30;66624.28;;;6.89;87.21
44144;BME280;43510;51.920;4.492;2023-01-29T06:16:32;66626.88;;;6.89;87.55
44144;BME280;43510;51.920;4.492;2023-01-29T06:18:57;66628.16;;;6.93;88.29
44144;BME280;43510;51.920;4.492;2023-01-29T06:21:23;66629.09;;;6.91;87.95
44144;BME280;43510;51.920;4.492;2023-01-29T06:23:52;66630.78;;;6.93;87.75
44144;BME280;43510;51.920;4.492;2023-01-29T06:26:19;66635.75;;;6.97;87.67
44144;BME280;43510;51.920;4.492;2023-01-29T06:28:47;66635.03;;;6.94;87.88
44144;BME280;43510;51.920;4.492;2023-01-29T06:31:13;66632.44;;;6.94;87.60
44144;BME280;43510;51.920;4.492;2023-01-29T06:33:39;66625.22;;;6.88;87.66
44144;BME280;43510;51.920;4.492;2023-01-29T06:36:07;66629.84;;;6.94;87.72
44144;BME280;43510;51.920;4.492;2023-01-29T06:38:32;66636.16;;;6.95;87.97
44144;BME280;43510;51.920;4.492;2023-01-29T06:40:58;66624.28;;;6.89;87.96
44144;BME280;43510;51.920;4.492;2023-01-29T06:43:24;66628.72;;;6.93;87.99
44144;BME280;43510;51.920;4.492;2023-01-29T06:45:51;66629.28;;;6.94;88.30
44144;BME280;43510;51.920;4.492;2023-01-29T06:48:17;66640.59;;;7.00;87.96
44144;BME280;43510;51.920;4.492;2023-01-29T06:50:42;66630.59;;;6.90;88.19
44144;BME280;43510;51.920;4.492;2023-01-29T06:55:50;66637.63;;;7.02;88.06
44144;BME280;43510;51.920;4.492;2023-01-29T07:01:08;66644.66;;;7.06;87.92
44144;BME280;43510;51.920;4.492;2023-01-29T07:03:34;66629.28;;;6.94;87.84
44144;BME280;43510;51.920;4.492;2023-01-29T07:06:00;66644.66;;;7.06;87.47
44144;BME280;43510;51.920;4.492;2023-01-29T07:08:26;66643.19;;;7.07;87.75
44144;BME280;43510;51.920;4.492;2023-01-29T07:10:52;66635.41;;;7.00;87.30
44144;BME280;43510;51.920;4.492;2023-01-29T07:13:18;66642.06;;;7.06;87.45
44144;BME280;43510;51.920;4.492;2023-01-29T07:15:43;66645.03;;;7.04;87.32
44144;BME280;43510;51.920;4.492;2023-01-29T07:18:09;66646.50;;;7.10;87.14
44144;BME280;43510;51.920;4.492;2023-01-29T07:20:39;66642.81;;;7.09;86.86
44144;BME280;43510;51.920;4.492;2023-01-29T07:23:04;66629.84;;;6.94;87.01
44144;BME280;43510;51.920;4.492;2023-01-29T07:25:32;66639.13;;;7.01;87.33
44144;BME280;43510;51.920;4.492;2023-01-29T07:28:01;66648.75;;;7.12;87.38
44144;BME280;43510;51.920;4.492;2023-01-29T07:30:26;66638.19;;;7.02;87.44
44144;BME280;43510;51.920;4.492;2023-01-29T07:32:52;66637.06;;;7.01;87.31
44144;BME280;43510;51.920;4.492;2023-01-29T07:55:59;66647.63;;;7.11;86.72
44144;BME280;43510;51.920;4.492;2023-01-29T08:11:20;66642.44;;;7.04;86.90
44144;BME280;43510;51.920;4.492;2023-01-29T08:13:45;66644.31;;;7.08;86.76
44144;BME280;43510;51.920;4.492;2023-01-29T08:23:56;66660.06;;;7.17;85.99
44144;BME280;43510;51.920;4.492;2023-01-29T08:26:23;66650.78;;;7.11;86.23
44144;BME280;43510;51.920;4.492;2023-01-29T08:28:50;66642.63;;;7.06;86.10
44144;BME280;43510;51.920;4.492;2023-01-29T08:31:17;66653.94;;;7.12;86.24
44144;BME280;43510;51.920;4.492;2023-01-29T08:33:46;66651.53;;;7.14;86.53
44144;BME280;43510;51.920;4.492;2023-01-29T08:38:56;66650.41;;;7.13;86.05
44144;BME280;43510;51.920;4.492;2023-01-29T09:22:45;66692.50;;;7.49;85.88
44144;BME280;43510;51.920;4.492;2023-01-29T09:25:11;66686.41;;;7.44;85.75
44144;BME280;43510;51.920;4.492;2023-01-29T09:27:36;66693.06;;;7.50;85.68
44144;BME280;43510;51.920;4.492;2023-01-29T09:30:03;66669.47;;;7.33;86.18
44144;BME280;43510;51.920;4.492;2023-01-29T09:32:32;66670.25;;;7.29;86.24
44144;BME280;43510;51.920;4.492;2023-01-29T09:34:59;66700.31;;;7.56;85.68
44144;BME280;43510;51.920;4.492;2023-01-29T09:37:24;66706.41;;;7.62;85.60
44144;BME280;43510;51.920;4.492;2023-01-29T09:39:50;66701.22;;;7.55;85.47
44144;BME280;43510;51.920;4.492;2023-01-29T09:42:29;66705.84;;;7.68;85.30
44144;BME280;43510;51.920;4.492;2023-01-29T09:45:35;66703.25;;;7.61;85.34
44144;BME280;43510;51.920;4.492;2023-01-29T09:50:43;66687.66;;;7.47;85.45
44144;BME280;43510;51.920;4.492;2023-01-29T09:53:29;66717.53;;;7.72;85.39
44144;BME280;43510;51.920;4.492;2023-01-29T09:56:19;66708.81;;;7.66;85.31
44144;BME280;43510;51.920;4.492;2023-01-29T09:58:45;66705.09;;;7.65;85.25
44144;BME280;43510;51.920;4.492;2023-01-29T10:07:25;66708.63;;;7.64;85.96
44144;BME280;43510;51.920;4.492;2023-01-29T10:13:05;66720.88;;;7.75;85.87
44144;BME280;43510;51.920;4.492;2023-01-29T10:24:37;66728.84;;;7.85;85.45
44144;BME280;43510;51.920;4.492;2023-01-29T10:27:02;66732.19;;;7.88;85.74
44144;BME280;43510;51.920;4.492;2023-01-29T10:29:35;66727.38;;;7.78;85.55
44144;BME280;43510;51.920;4.492;2023-01-29T10:32:02;66732.00;;;7.85;85.47
44144;BME280;43510;51.920;4.492;2023-01-29T10:34:37;66745.94;;;7.98;85.46
44144;BME280;43510;51.920;4.492;2023-01-29T10:37:18;66744.41;;;7.99;85.50
44144;BME280;43510;51.920;4.492;2023-01-29T10:39:48;66747.03;;;7.99;85.18
44144;BME280;43510;51.920;4.492;2023-01-29T10:42:25;66740.34;;;7.93;85.15
44144;BME280;43510;51.920;4.492;2023-01-29T10:50:51;66754.44;;;8.08;85.26
44144;BME280;43510;51.920;4.492;2023-01-29T10:56:17;66748.31;;;8.02;85.63
44144;BME280;43510;51.920;4.492;2023-01-29T10:58:50;66751.09;;;8.05;85.59
44144;BME280;43510;51.920;4.492;2023-01-29T11:01:17;66755.22;;;8.04;85.92
44144;BME280;43510;51.920;4.492;2023-01-29T11:03:43;66758.16;;;8.09;85.59
44144;BME280;43510;51.920;4.492;2023-01-29T11:06:22;66764.50;;;8.10;85.86
44144;BME280;43510;51.920;4.492;2023-01-29T11:09:08;66745.53;;;8.00;85.79
44144;BME280;43510;51.920;4.492;2023-01-29T11:11:43;66765.22;;;8.13;85.57
44144;BME280;43510;51.920;4.492;2023-01-29T11:14:52;66767.63;;;8.17;85.51
44144;BME280;43510;51.920;4.492;2023-01-29T11:17:22;66753.69;;;8.05;85.50
44144;BME280;43510;51.920;4.492;2023-01-29T11:19:51;66753.31;;;8.07;85.85
44144;BME280;43510;51.920;4.492;2023-01-29T11:22:22;66763.16;;;8.13;85.91
44144;BME280;43510;51.920;4.492;2023-01-29T11:25:18;66765.78;;;8.13;85.52
44144;BME280;43510;51.920;4.492;2023-01-29T11:30:23;66765.78;;;8.13;85.30
44144;BME280;43510;51.920;4.492;2023-01-29T11:33:37;66758.34;;;8.11;85.31
44144;BME280;43510;51.920;4.492;2023-01-29T11:35:37;66764.44;;;8.17;85.29
44144;BME280;43510;51.920;4.492;2023-01-29T11:38:28;66767.81;;;8.20;85.14
44144;BME280;43510;51.920;4.492;2023-01-29T11:41:14;66761.50;;;8.12;85.41
44144;BME280;43510;51.920;4.492;2023-01-29T11:43:42;66763.34;;;8.16;85.31
44144;BME280;43510;51.920;4.492;2023-01-29T11:46:22;66759.81;;;8.10;85.05
44144;BME280;43510;51.920;4.492;2023-01-29T11:48:49;66777.09;;;8.26;85.06
44144;BME280;43510;51.920;4.492;2023-01-29T11:51:24;66771.69;;;8.24;84.81
44144;BME280;43510;51.920;4.492;2023-01-29T11:54:14;66770.03;;;8.22;84.82
44144;BME280;43510;51.920;4.492;2023-01-29T11:56:43;66750.16;;;8.06;84.88
44144;BME280;43510;51.920;4.492;2023-01-29T11:59:39;66779.84;;;8.29;84.82
44144;BME280;43510;51.920;4.492;2023-01-29T12:02:31;66779.31;;;8.28;84.84
44144;BME280;43510;51.920;4.492;2023-01-29T12:05:03;66789.19;;;8.35;84.46
44144;BME280;43510;51.920;4.492;2023-01-29T12:07:31;66774.69;;;8.22;84.43
44144;BME280;43510;51.920;4.492;2023-01-29T12:09:58;66790.06;;;8.40;84.17
44144;BME280;43510;51.920;4.492;2023-01-29T12:12:38;66790.06;;;8.40;83.93
44144;BME280;43510;51.920;4.492;2023-01-29T12:15:16;66793.81;;;8.41;83.99
44144;BME280;43510;51.920;4.492;2023-01-29T12:20:38;66790.06;;;8.40;83.98
44144;BME280;43510;51.920;4.492;2023-01-29T12:25:57;66790.63;;;8.41;84.19
44144;BME280;43510;51.920;4.492;2023-01-29T12:36:53;66803.84;;;8.50;83.42
44144;BME280;43510;51.920;4.492;2023-01-29T12:39:21;66813.47;;;8.62;83.36
44144;BME280;43510;51.920;4.492;2023-01-29T12:41:51;66832.63;;;8.74;83.02
44144;BME280;43510;51.920;4.492;2023-01-29T12:44:40;66837.97;;;8.84;82.37
44144;BME280;43510;51.920;4.492;2023-01-29T12:47:42;66840.59;;;8.84;81.80
44144;BME280;43510;51.920;4.492;2023-01-29T12:50:21;66844.50;;;8.87;82.20
44144;BME280;43510;51.920;4.492;2023-01-29T12:53:01;66839.09;;;8.85;81.93
44144;BME280;43510;51.920;4.492;2023-01-29T12:55:44;66847.44;;;8.92;81.90
44144;BME280;43510;51.920;4.492;2023-01-29T12:58:20;66837.97;;;8.84;82.09
44144;BME280;43510;51.920;4.492;2023-01-29T13:00:49;66838.34;;;8.82;82.04
44144;BME280;43510;51.920;4.492;2023-01-29T13:03:21;66833.53;;;8.80;82.31
44144;BME280;43510;51.920;4.492;2023-01-29T13:05:49;66837.41;;;8.83;82.40
44144;BME280;43510;51.920;4.492;2023-01-29T13:08:29;66839.09;;;8.85;82.02
44144;BME280;43510;51.920;4.492;2023-01-29T13:10:58;66844.66;;;8.90;82.10
44144;BME280;43510;51.920;4.492;2023-01-29T13:13:44;66849.09;;;8.94;82.10
44144;BME280;43510;51.920;4.492;2023-01-29T13:16:19;66855.63;;;8.97;81.88
44144;BME280;43510;51.920;4.492;2023-01-29T13:18:53;66850.63;;;8.93;81.69
44144;BME280;43510;51.920;4.492;2023-01-29T13:21:26;66842.25;;;8.85;81.49
44144;BME280;43510;51.920;4.492;2023-01-29T13:24:00;66852.44;;;8.97;81.45
44144;BME280;43510;51.920;4.492;2023-01-29T13:26:27;66855.78;;;9.00;81.99
44144;BME280;43510;51.920;4.492;2023-01-29T13:28:53;66856.75;;;8.98;81.71
44144;BME280;43510;51.920;4.492;2023-01-29T13:31:33;66858.03;;;9.02;81.80
44144;BME280;43510;51.920;4.492;2023-01-29T13:34:25;66861.38;;;9.05;81.70
44144;BME280;43510;51.920;4.492;2023-01-29T13:37:33;66861.38;;;9.05;81.64
44144;BME280;43510;51.920;4.492;2023-01-29T13:39:58;66861.38;;;9.05;81.74
44144;BME280;43510;51.920;4.492;2023-01-29T13:45:01;66876.81;;;9.17;81.35
44144;BME280;43510;51.920;4.492;2023-01-29T13:47:29;66873.63;;;9.16;81.30
44144;BME280;43510;51.920;4.492;2023-01-29T13:50:05;66865.81;;;9.09;81.34
44144;BME280;43510;51.920;4.492;2023-01-29T13:52:39;66877.69;;;9.22;81.55
44144;BME280;43510;51.920;4.492;2023-01-29T13:57:46;66896.31;;;9.34;81.41
44144;BME280;43510;51.920;4.492;2023-01-29T14:05:35;66899.47;;;9.35;81.36
44144;BME280;43510;51.920;4.492;2023-01-29T14:10:32;66883.66;;;9.25;81.90
44144;BME280;43510;51.920;4.492;2023-01-29T18:43:44;66737.56;;;7.90;98.66
44144;BME280;43510;51.920;4.492;2023-01-29T18:46:10;66734.41;;;7.90;98.78
44144;BME280;43510;51.920;4.492;2023-01-29T18:48:35;66733.13;;;7.86;98.60
44144;BME280;43510;51.920;4.492;2023-01-29T18:51:07;66733.66;;;7.87;98.83
44144;BME280;43510;51.920;4.492;2023-01-29T18:56:08;66727.16;;;7.83;99.23
44144;BME280;43510;51.920;4.492;2023-01-29T18:58:35;66735.75;;;7.86;98.93
44144;BME280;43510;51.920;4.492;2023-01-29T19:01:03;66732.56;;;7.86;99.17
44144;BME280;43510;51.920;4.492;2023-01-29T19:03:33;66728.84;;;7.85;99.23
44144;BME280;43510;51.920;4.492;2023-01-29T19:06:03;66751.16;;;7.98;98.90
44144;BME280;43510;51.920;4.492;2023-01-29T19:08:29;66742.19;;;7.97;98.93
44144;BME280;43510;51.920;4.492;2023-01-29T19:10:55;66738.28;;;7.93;99.21
44144;BME280;43510;51.920;4.492;2023-01-29T19:13:22;66737.38;;;7.88;98.89
44144;BME280;43510;51.920;4.492;2023-01-29T19:15:47;66729.97;;;7.86;98.99
44144;BME280;43510;51.920;4.492;2023-01-29T19:18:14;66748.91;;;7.96;98.95
44144;BME280;43510;51.920;4.492;2023-01-29T19:20:40;66751.88;;;8.01;98.69
44144;BME280;43510;51.920;4.492;2023-01-29T19:23:07;66745.53;;;8.00;98.61
44144;BME280;43510;51.920;4.492;2023-01-29T19:25:35;66744.81;;;7.97;98.69
44144;BME280;43510;51.920;4.492;2023-01-29T19:33:12;66736.47;;;7.89;98.05
44144;BME280;43510;51.920;4.492;2023-01-29T19:35:38;66744.63;;;7.94;98.46
44144;BME280;43510;51.920;4.492;2023-01-29T19:38:05;66747.19;;;8.01;98.59
44144;BME280;43510;51.920;4.492;2023-01-29T19:40:32;66748.13;;;8.00;98.47
44144;BME280;43510;51.920;4.492;2023-01-29T19:42:57;66760.59;;;8.06;98.19
44144;BME280;43510;51.920;4.492;2023-01-29T19:45:32;66747.75;;;8.02;98.61
44144;BME280;43510;51.920;4.492;2023-01-29T19:47:58;66744.81;;;7.97;98.85
44144;BME280;43510;51.920;4.492;2023-01-29T19:50:24;66746.50;;;7.98;99.27
44144;BME280;43510;51.920;4.492;2023-01-29T19:52:49;66742.75;;;7.97;98.98
44144;BME280;43510;51.920;4.492;2023-01-29T19:55:16;66742.56;;;7.95;99.34
44144;BME280;43510;51.920;4.492;2023-01-29T19:57:42;66754.25;;;8.05;99.70
44144;BME280;43510;51.920;4.492;2023-01-29T20:00:08;66736.63;;;7.92;99.85
44144;BME280;43510;51.920;4.492;2023-01-29T20:02:36;66750.19;;;7.99;99.82
44144;BME280;43510;51.920;4.492;2023-01-29T20:05:01;66743.13;;;7.95;99.55
44144;BME280;43510;51.920;4.492;2023-01-29T20:07:29;66737.19;;;7.92;99.84
44144;BME280;43510;51.920;4.492;2023-01-29T20:09:56;66738.84;;;7.94;100.00
44144;BME280;43510;51.920;4.492;2023-01-29T20:12:21;66754.66;;;8.03;100.00
44144;BME280;43510;51.920;4.492;2023-01-29T20:14:46;66750.53;;;8.04;100.00
44144;BME280;43510;51.920;4.492;2023-01-29T20:17:16;66739.81;;;7.92;100.00
44144;BME280;43510;51.920;4.492;2023-01-29T20:19:43;66743.31;;;7.98;100.00
44144;BME280;43510;51.920;4.492;2023-01-29T20:22:09;66749.44;;;8.03;100.00
44144;BME280;43510;51.920;4.492;2023-01-29T20:24:35;66754.44;;;8.08;100.00
44144;BME280;43510;51.920;4.492;2023-01-29T20:27:04;66742.38;;;7.99;100.00
44144;BME280;43510;51.920;4.492;2023-01-29T20:29:30;66759.28;;;8.10;100.00
44144;BME280;43510;51.920;4.492;2023-01-29T20:31:55;66757.06;;;8.08;100.00
44144;BME280;43510;51.920;4.492;2023-01-29T20:34:21;66746.09;;;8.00;100.00
44144;BME280;43510;51.920;4.492;2023-01-29T20:36:48;66770.03;;;8.22;100.00
44144;BME280;43510;51.920;4.492;2023-01-29T20:39:17;66775.03;;;8.27;100.00
44144;BME280;43510;51.920;4.492;2023-01-29T20:41:43;66773.75;;;8.23;100.00
44144;BME280;43510;51.920;4.492;2023-01-29T20:44:08;66773.91;;;8.26;100.00
44144;BME280;43510;51.920;4.492;2023-01-29T20:46:34;66780.81;;;8.27;100.00
44144;BME280;43510;51.920;4.492;2023-01-29T20:49:04;66777.81;;;8.29;100.00
44144;BME280;43510;51.920;4.492;2023-01-29T20:51:31;66780.41;;;8.29;100.00
44144;BME280;43510;51.920;4.492;2023-01-29T20:53:56;66776.72;;;8.28;100.00
44144;BME280;43510;51.920;4.492;2023-01-29T20:56:22;66785.84;;;8.32;100.00
44144;BME280;43510;51.920;4.492;2023-01-29T20:58:47;66778.75;;;8.28;100.00
44144;BME280;43510;51.920;4.492;2023-01-29T21:01:16;66792.31;;;8.42;100.00
44144;BME280;43510;51.920;4.492;2023-01-29T21:03:41;66785.06;;;8.36;100.00
44144;BME280;43510;51.920;4.492;2023-01-29T21:06:08;66791.03;;;8.39;100.00
44144;BME280;43510;51.920;4.492;2023-01-29T21:08:35;66785.06;;;8.36;100.00
44144;BME280;43510;51.920;4.492;2023-01-29T21:11:03;66789.34;;;8.37;100.00
44144;BME280;43510;51.920;4.492;2023-01-29T21:13:29;66788.25;;;8.36;100.00
44144;BME280;43510;51.920;4.492;2023-01-29T21:16:00;66780.63;;;8.32;100.00
44144;BME280;43510;51.920;4.492;2023-01-29T21:18:34;66789.34;;;8.37;100.00
44144;BME280;43510;51.920;4.492;2023-01-29T21:21:00;66792.16;;;8.40;100.00
44144;BME280;43510;51.920;4.492;2023-01-29T21:23:25;66780.63;;;8.32;100.00
44144;BME280;43510;51.920;4.492;2023-01-29T21:25:50;66808.84;;;8.55;100.00
44144;BME280;43510;51.920;4.492;2023-01-29T21:28:16;66805.66;;;8.54;100.00
44144;BME280;43510;51.920;4.492;2023-01-29T21:30:41;66805.88;;;8.50;100.00
44144;BME280;43510;51.920;4.492;2023-01-29T21:33:07;66806.78;;;8.55;100.00
44144;BME280;43510;51.920;4.492;2023-01-29T21:35:33;66815.91;;;8.59;100.00
44144;BME280;43510;51.920;4.492;2023-01-29T21:38:01;66801.78;;;8.51;100.00
44144;BME280;43510;51.920;4.492;2023-01-29T21:40:36;66822.22;;;8.67;100.00
44144;BME280;43510;51.920;4.492;2023-01-29T21:43:02;66814.78;;;8.58;100.00
44144;BME280;43510;51.920;4.492;2023-01-29T21:45:37;66804.56;;;8.53;100.00
44144;BME280;43510;51.920;4.492;2023-01-29T21:48:03;66803.66;;;8.48;100.00
44144;BME280;43510;51.920;4.492;2023-01-29T21:50:29;66813.28;;;8.59;100.00
44144;BME280;43510;51.920;4.492;2023-01-29T21:52:54;66809.75;;;8.60;100.00
44144;BME280;43510;51.920;4.492;2023-01-29T21:55:20;66800.47;;;8.47;100.00
44144;BME280;43510;51.920;4.492;2023-01-29T21:57:46;66795.09;;;8.45;100.00
44144;BME280;43510;51.920;4.492;2023-01-29T22:00:13;66806.78;;;8.55;100.00
44144;BME280;43510;51.920;4.492;2023-01-29T22:02:39;66809.41;;;8.55;100.00
44144;BME280;43510;51.920;4.492;2023-01-29T22:05:06;66815.72;;;8.64;100.00
44144;BME280;43510;51.920;4.492;2023-01-29T22:07:32;66823.47;;;8.71;100.00
44144;BME280;43510;51.920;4.492;2023-01-29T22:09:59;66825.94;;;8.68;100.00
44144;BME280;43510;51.920;4.492;2023-01-29T22:12:24;66822.00;;;8.72;100.00
44144;BME280;43510;51.920;4.492;2023-01-29T22:14:50;66824.78;;;8.74;100.00
44144;BME280;43510;51.920;4.492;2023-01-29T22:17:20;66841.69;;;8.85;100.00
44144;BME280;43510;51.920;4.492;2023-01-29T22:19:46;66846.88;;;8.92;100.00
44144;BME280;43510;51.920;4.492;2023-01-29T22:22:13;66837.06;;;8.78;100.00
44144;BME280;43510;51.920;4.492;2023-01-29T22:24:42;66842.81;;;8.86;100.00
44144;BME280;43510;51.920;4.492;2023-01-29T22:27:14;66859.69;;;9.04;100.00
44144;BME280;43510;51.920;4.492;2023-01-29T22:29:39;66845.78;;;8.91;100.00
44144;BME280;43510;51.920;4.492;2023-01-29T22:32:05;66864.00;;;9.05;100.00
44144;BME280;43510;51.920;4.492;2023-01-29T22:34:32;66868.06;;;9.11;100.00
44144;BME280;43510;51.920;4.492;2023-01-29T22:36:57;66876.97;;;9.19;100.00
44144;BME280;43510;51.920;4.492;2023-01-29T22:39:23;66886.66;;;9.23;100.00
44144;BME280;43510;51.920;4.492;2023-01-29T22:41:48;66874.00;;;9.14;100.00
44144;BME280;43510;51.920;4.492;2023-01-29T22:44:14;66882.53;;;9.24;100.00
44144;BME280;43510;51.920;4.492;2023-01-29T22:46:46;66888.84;;;9.32;100.00
44144;BME280;43510;51.920;4.492;2023-01-29T22:49:12;66892.56;;;9.33;100.00
44144;BME280;43510;51.920;4.492;2023-01-29T22:51:37;66904.47;;;9.39;100.00
44144;BME280;43510;51.920;4.492;2023-01-29T22:54:03;66902.97;;;9.40;100.00
44144;BME280;43510;51.920;4.492;2023-01-29T22:56:28;66902.59;;;9.42;100.00
44144;BME280;43510;51.920;4.492;2023-01-29T22:58:58;66913.75;;;9.53;100.00
44144;BME280;43510;51.920;4.492;2023-01-29T23:01:26;66918.25;;;9.50;100.00
44144;BME280;43510;51.920;4.492;2023-01-29T23:03:52;66913.75;;;9.53;100.00
44144;BME280;43510;51.920;4.492;2023-01-29T23:06:18;66914.09;;;9.58;100.00
44144;BME280;43510;51.920;4.492;2023-01-29T23:08:46;66919.31;;;9.58;100.00
44144;BME280;43510;51.920;4.492;2023-01-29T23:11:15;66927.66;;;9.65;100.00
44144;BME280;43510;51.920;4.492;2023-01-29T23:13:52;66930.28;;;9.65;100.00
44144;BME280;43510;51.920;4.492;2023-01-29T23:16:21;66932.50;;;9.67;100.00
44144;BME280;43510;51.920;4.492;2023-01-29T23:18:51;66922.09;;;9.60;100.00
44144;BME280;43510;51.920;4.492;2023-01-29T23:21:19;66937.13;;;9.74;100.00
44144;BME280;43510;51.920;4.492;2023-01-29T23:23:45;66940.50;;;9.77;100.00
44144;BME280;43510;51.920;4.492;2023-01-29T23:26:12;66938.25;;;9.75;100.00
44144;BME280;43510;51.920;4.492;2023-01-29T23:28:55;66942.38;;;9.74;100.00
44144;BME280;43510;51.920;4.492;2023-01-29T23:31:21;66934.91;;;9.72;100.00
44144;BME280;43510;51.920;4.492;2023-01-29T23:33:47;66943.13;;;9.77;100.00
44144;BME280;43510;51.920;4.492;2023-01-29T23:41:23;66935.31;;;9.70;100.00
44144;BME280;43510;51.920;4.492;2023-01-29T23:43:48;66945.50;;;9.81;100.00
44144;BME280;43510;51.920;4.492;2023-01-29T23:46:14;66954.63;;;9.85;100.00
44144;BME280;43510;51.920;4.492;2023-01-29T23:48:40;66936.03;;;9.73;100.00
44144;BME280;43510;51.920;4.492;2023-01-29T23:51:06;66949.41;;;9.85;100.00
44144;BME280;43510;51.920;4.492;2023-01-29T23:53:31;66934.91;;;9.72;100.00
44144;BME280;43510;51.920;4.492;2023-01-29T23:55:59;66946.44;;;9.80;100.00
44144;BME280;43510;51.920;4.492;2023-01-29T23:58:25;66959.44;;;9.94;100.00
